KCEU/CEU METAR and TAF weather

Enter ICAO airport designator
Station Type Date Time Source
KCEU METAR 2020/07/04 09:54 UTC NOAA

KCEU 040954Z AUTO 00000KT 8SM OVC100 24/22 A2996 RMK AO2 SLP134 T02390217


Station Type Date Time Source
KCEU Decoded METAR 2020/07/04 09:54 UTC NOAA

CLEMSON-OCONEE COUNTY AIRPORT , SC, United States (KCEU) 34-40N 082-53W 268M
Jul 04, 2020 - 05:54 AM EDT / 2020.07.04 0954 UTC
Wind: Calm:0
Visibility: 8 mile(s):0
Sky conditions: overcast
Temperature: 75.0 F (23.9 C)
Dew Point: 71.1 F (21.7 C)
Relative Humidity: 87%
Pressure (altimeter): 29.96 in. Hg (1014 hPa)
ob: KCEU 040954Z AUTO 00000KT 8SM OVC100 24/22 A2996 RMK AO2 SLP134 T02390217
cycle: 10

Station Type Date Time Source
KCEU TAF UTC NOAA

Error!

Example: see airport list